createdAt,value
2019-05-17T00:04:33.557Z,32.47
2019-05-17T00:09:38.566Z,32.80
2019-05-17T00:14:43.402Z,30.77
2019-05-17T00:19:48.579Z,33.60
2019-05-17T00:24:53.508Z,29.27
2019-05-17T00:29:58.774Z,31.33
2019-05-17T00:35:07.286Z,31.20
2019-05-17T00:40:13.412Z,30.43
2019-05-17T00:45:18.473Z,33.10
2019-05-17T00:50:23.831Z,31.20
2019-05-17T00:55:28.883Z,32.83
2019-05-17T01:00:33.880Z,33.40
2019-05-17T01:05:38.841Z,30.80
2019-05-17T01:10:43.765Z,31.23
2019-05-17T01:15:48.563Z,31.83
2019-05-17T01:20:53.465Z,29.57
2019-05-17T01:25:58.528Z,31.43
2019-05-17T01:31:03.581Z,31.80
2019-05-17T01:36:09.662Z,29.77
2019-05-17T01:41:14.714Z,30.17
2019-05-17T01:46:19.693Z,30.60
2019-05-17T01:51:26.303Z,29.27
2019-05-17T01:56:31.324Z,30.20
2019-05-17T02:01:37.126Z,29.90
2019-05-17T02:06:46.573Z,28.97
2019-05-17T02:11:51.114Z,30.07
2019-05-17T02:16:57.328Z,32.47
2019-05-17T02:22:02.538Z,28.17
2019-05-17T02:27:08.598Z,30.37
2019-05-17T02:32:13.580Z,31.30
2019-05-17T02:37:18.571Z,27.87
2019-05-17T02:42:23.550Z,29.80
2019-05-17T02:47:28.778Z,28.63
2019-05-17T02:52:34.486Z,31.57
2019-05-17T02:57:42.849Z,32.13
2019-05-17T03:02:46.492Z,29.43
2019-05-17T03:07:52.759Z,31.80
2019-05-17T03:12:58.641Z,31.20
2019-05-17T03:18:04.223Z,28.57
2019-05-17T03:23:12.465Z,28.70
2019-05-17T03:28:16.402Z,28.23
2019-05-17T03:33:26.613Z,29.70
2019-05-17T03:38:32.550Z,31.40
2019-05-17T03:43:40.328Z,28.90
2019-05-17T03:48:43.662Z,32.07
2019-05-17T03:53:48.863Z,29.50
2019-05-17T03:58:54.377Z,30.10
2019-05-17T04:04:02.812Z,28.30
2019-05-17T04:09:08.199Z,30.67
2019-05-17T04:14:14.220Z,28.87
2019-05-17T04:19:22.750Z,29.40
2019-05-17T04:24:25.994Z,31.37
2019-05-17T04:29:33.190Z,29.57
2019-05-17T04:34:38.231Z,32.40
2019-05-17T04:39:43.637Z,32.27
2019-05-17T04:44:52.409Z,30.30
2019-05-17T04:49:55.664Z,32.43
2019-05-17T04:55:03.681Z,32.30
2019-05-17T05:00:07.992Z,34.70
2019-05-17T05:05:13.982Z,42.77
2019-05-17T05:10:22.526Z,44.33
2019-05-17T05:15:32.253Z,41.50
2019-05-17T05:20:43.149Z,56.03
2019-05-17T05:25:47.398Z,47.43
2019-05-17T05:30:52.957Z,44.57
2019-05-17T05:35:58.501Z,70.13
2019-05-17T05:41:04.461Z,61.70
2019-05-17T05:46:11.674Z,54.47
2019-05-17T05:51:17.353Z,69.93
2019-05-17T05:56:23.323Z,59.83
2019-05-17T06:01:28.891Z,59.80
2019-05-17T06:06:34.196Z,64.20
2019-05-17T06:11:41.494Z,57.50
2019-05-17T06:16:47.648Z,65.00
2019-05-17T06:21:52.488Z,60.93
2019-05-17T06:26:57.525Z,66.97
2019-05-17T06:32:02.804Z,66.10
2019-05-17T06:37:08.496Z,66.90
2019-05-17T06:42:13.608Z,66.00
2019-05-17T06:47:19.437Z,73.47
2019-05-17T06:52:25.001Z,71.20
2019-05-17T06:57:32.450Z,80.70
2019-05-17T07:02:37.170Z,67.63
2019-05-17T07:07:42.655Z,80.07
2019-05-17T07:12:56.027Z,68.37
2019-05-17T07:17:55.089Z,77.67
2019-05-17T07:23:00.616Z,69.03
2019-05-17T07:28:09.761Z,52.50
2019-05-17T07:33:14.465Z,71.97
2019-05-17T07:38:19.988Z,73.47
2019-05-17T07:43:25.712Z,62.90
2019-05-17T07:48:31.327Z,60.87
2019-05-17T07:53:39.899Z,49.03
2019-05-17T07:58:44.699Z,57.47
2019-05-17T08:03:50.230Z,66.03
2019-05-17T08:08:55.403Z,55.90
2019-05-17T08:14:00.747Z,48.80
2019-05-17T08:20:01.026Z,44.07
2019-05-17T08:25:10.118Z,58.57
2019-05-17T08:30:15.948Z,53.77
2019-05-17T08:35:20.952Z,50.00
2019-05-17T08:40:26.082Z,51.63
2019-05-17T08:45:32.459Z,53.77
2019-05-17T08:50:40.384Z,59.37
2019-05-17T08:55:45.719Z,77.97
2019-05-17T09:00:51.001Z,57.70
2019-05-17T09:05:56.249Z,53.57
2019-05-17T09:11:02.398Z,56.67
2019-05-17T09:16:07.485Z,160.80
2019-05-17T09:21:12.859Z,161.23
2019-05-17T09:26:19.986Z,131.27
2019-05-17T09:31:29.869Z,83.57
2019-05-17T09:36:35.828Z,86.23
2019-05-17T09:41:41.120Z,66.87
2019-05-17T09:46:46.478Z,75.10
2019-05-17T09:51:51.782Z,62.87
2019-05-17T09:56:56.969Z,74.47
2019-05-17T10:02:02.157Z,74.53
2019-05-17T10:07:10.175Z,75.73
2019-05-17T10:12:17.264Z,162.93
2019-05-17T10:17:22.966Z,111.83
2019-05-17T10:22:30.402Z,94.83
2019-05-17T10:27:35.690Z,78.13
2019-05-17T10:32:41.192Z,64.37
2019-05-17T10:37:46.591Z,59.07
2019-05-17T10:42:51.706Z,63.63
2019-05-17T10:47:57.405Z,52.83
2019-05-17T10:53:02.545Z,49.47
2019-05-17T10:58:10.081Z,51.30
2019-05-17T11:03:14.349Z,49.27
2019-05-17T11:08:19.878Z,51.50
2019-05-17T11:13:25.609Z,51.73
2019-05-17T11:18:30.860Z,46.10
2019-05-17T11:23:35.870Z,49.37
2019-05-17T11:28:41.133Z,63.20
2019-05-17T11:33:46.239Z,56.00
2019-05-17T11:38:51.430Z,50.00
2019-05-17T11:43:56.417Z,96.77
2019-05-17T11:49:01.635Z,62.97
2019-05-17T11:54:06.845Z,57.13
2019-05-17T11:59:11.928Z,54.03
2019-05-17T12:04:17.079Z,54.40
2019-05-17T12:09:36.394Z,51.03
2019-05-17T12:14:29.025Z,47.57
2019-05-17T12:19:37.051Z,48.23
2019-05-17T12:24:41.694Z,62.43
2019-05-17T12:29:46.687Z,77.73
2019-05-17T12:34:51.710Z,81.13
2019-05-17T12:39:56.834Z,131.43
2019-05-17T12:45:02.107Z,86.40
2019-05-17T12:50:10.068Z,85.10
2019-05-17T12:55:15.186Z,125.17
2019-05-17T13:00:21.173Z,100.13
2019-05-17T13:05:27.076Z,83.63
2019-05-17T13:10:32.358Z,78.17
2019-05-17T13:15:38.108Z,89.67
2019-05-17T13:20:43.248Z,73.37
2019-05-17T13:25:50.497Z,73.10
2019-05-17T13:30:56.633Z,72.33
2019-05-17T13:36:03.308Z,69.97
2019-05-17T13:41:08.367Z,68.33
2019-05-17T13:46:13.696Z,70.27
2019-05-17T13:51:19.139Z,67.47
2019-05-17T13:56:24.297Z,77.33
2019-05-17T14:01:29.446Z,79.50
2019-05-17T14:06:34.738Z,86.33
2019-05-17T14:11:40.244Z,82.43
2019-05-17T14:16:45.417Z,83.37
2019-05-17T14:21:50.538Z,74.23
2019-05-17T14:26:55.571Z,72.23
2019-05-17T14:32:00.777Z,78.67
2019-05-17T14:37:07.607Z,90.00
2019-05-17T14:42:12.568Z,75.40
2019-05-17T14:47:17.771Z,79.67
2019-05-17T14:52:23.039Z,72.63
2019-05-17T14:57:28.169Z,77.23
2019-05-17T15:02:33.545Z,80.37
2019-05-17T15:07:38.799Z,73.83
2019-05-17T15:12:44.165Z,70.40
2019-05-17T15:17:49.186Z,73.37
2019-05-17T15:22:54.459Z,72.80
2019-05-17T15:27:59.538Z,70.97
2019-05-17T15:33:04.727Z,77.13
2019-05-17T15:38:11.249Z,72.73
2019-05-17T15:43:16.515Z,72.93
2019-05-17T15:48:21.845Z,71.40
2019-05-17T15:53:27.155Z,72.43
2019-05-17T15:58:32.373Z,72.23
2019-05-17T16:03:37.638Z,76.07
2019-05-17T16:08:42.902Z,72.13
2019-05-17T16:13:48.788Z,69.77
2019-05-17T16:18:53.968Z,73.67
2019-05-17T16:23:59.086Z,67.23
2019-05-17T16:29:04.231Z,70.77
2019-05-17T16:34:09.329Z,71.27
2019-05-17T16:39:14.464Z,67.00
2019-05-17T16:44:19.584Z,69.47
2019-05-17T16:49:24.977Z,67.60
2019-05-17T16:54:30.233Z,73.07
2019-05-17T16:59:35.308Z,70.97
2019-05-17T17:04:40.663Z,61.83
2019-05-17T17:09:45.747Z,65.40
2019-05-17T17:14:50.970Z,66.30
2019-05-17T17:19:56.062Z,61.50
2019-05-17T17:25:01.186Z,59.37
2019-05-17T17:30:07.403Z,57.40
2019-05-17T17:35:12.444Z,62.50
2019-05-17T17:40:21.435Z,62.50
2019-05-17T17:45:26.712Z,59.07
2019-05-17T17:50:31.945Z,62.57
2019-05-17T17:55:37.238Z,64.20
2019-05-17T18:00:42.489Z,59.63
2019-05-17T18:05:47.683Z,55.97
2019-05-17T18:10:52.999Z,61.87
2019-05-17T18:15:57.897Z,60.27
2019-05-17T18:21:02.850Z,66.27
2019-05-17T18:26:09.159Z,57.93
2019-05-17T18:31:14.389Z,59.00
2019-05-17T18:36:19.421Z,58.97
2019-05-17T18:41:24.689Z,58.27
2019-05-17T18:46:31.545Z,61.17
2019-05-17T18:51:37.479Z,56.23
2019-05-17T18:56:43.783Z,57.23
2019-05-17T19:01:48.931Z,58.13
2019-05-17T19:06:53.911Z,58.17
2019-05-17T19:11:58.929Z,55.03
2019-05-17T19:17:05.972Z,59.63
2019-05-17T19:22:13.356Z,52.00
2019-05-17T19:27:20.629Z,60.23
2019-05-17T19:32:26.366Z,52.73
2019-05-17T19:37:31.600Z,55.60
2019-05-17T19:42:37.159Z,54.73
2019-05-17T19:47:43.092Z,57.87
2019-05-17T19:52:48.828Z,56.63
2019-05-17T19:57:55.033Z,58.67
2019-05-17T20:03:01.276Z,51.47
2019-05-17T20:08:08.584Z,53.67
2019-05-17T20:13:15.120Z,54.40
2019-05-17T20:18:20.834Z,55.77
2019-05-17T20:23:26.797Z,50.90
2019-05-17T20:28:32.646Z,51.93
2019-05-17T20:33:40.035Z,53.70
2019-05-17T20:38:45.980Z,53.47
2019-05-17T20:43:52.725Z,54.53
2019-05-17T20:48:59.143Z,51.90
2019-05-17T20:54:07.221Z,51.23
2019-05-17T20:59:13.368Z,52.53
2019-05-17T21:04:19.963Z,56.07
2019-05-17T21:09:25.007Z,51.70
2019-05-17T21:14:30.020Z,56.63
2019-05-17T21:19:35.196Z,53.07
2019-05-17T21:24:40.228Z,51.00
2019-05-17T21:29:45.344Z,51.37
2019-05-17T21:34:50.523Z,53.70
2019-05-17T21:39:55.448Z,48.97
2019-05-17T21:45:00.540Z,51.53
2019-05-17T21:50:05.888Z,47.70
2019-05-17T21:55:10.871Z,49.93
2019-05-17T22:00:20.649Z,48.53
2019-05-17T22:05:27.095Z,48.43
2019-05-17T22:10:32.181Z,49.20
2019-05-17T22:15:37.194Z,48.53
2019-05-17T22:20:42.627Z,49.70
2019-05-17T22:25:47.707Z,50.17
2019-05-17T22:30:52.766Z,50.47
2019-05-17T22:35:57.989Z,50.37
2019-05-17T22:41:03.156Z,49.57
2019-05-17T22:46:08.196Z,51.43
2019-05-17T22:51:14.582Z,51.77
2019-05-17T22:56:19.587Z,47.90
2019-05-17T23:01:24.489Z,53.10
2019-05-17T23:06:29.518Z,50.53
2019-05-17T23:11:34.393Z,50.57
2019-05-17T23:16:50.910Z,46.87
2019-05-17T23:21:46.109Z,51.97
2019-05-17T23:26:51.488Z,52.57
2019-05-17T23:31:57.627Z,47.87
2019-05-17T23:37:02.800Z,47.23
2019-05-17T23:42:07.728Z,48.87
2019-05-17T23:47:12.765Z,48.60
2019-05-17T23:52:17.669Z,50.23
2019-05-17T23:57:22.614Z,46.83
